createdAt,value
2022-07-29T00:04:34.045Z,7.10
2022-07-29T00:09:50.925Z,6.55
2022-07-29T00:14:59.121Z,6.20
2022-07-29T00:20:04.288Z,5.88
2022-07-29T00:25:12.422Z,6.20
2022-07-29T00:30:17.591Z,6.10
2022-07-29T00:35:34.933Z,7.20
2022-07-29T00:40:43.954Z,6.53
2022-07-29T00:45:49.546Z,6.70
2022-07-29T00:50:54.851Z,5.68
2022-07-29T00:56:03.009Z,5.90
2022-07-29T01:01:08.166Z,7.30
2022-07-29T01:06:13.917Z,6.15
2022-07-29T01:11:22.062Z,6.05
2022-07-29T01:16:35.577Z,6.72
2022-07-29T01:21:55.873Z,5.95
2022-07-29T01:27:08.848Z,6.93
2022-07-29T01:32:27.759Z,6.50
2022-07-29T01:37:39.340Z,7.03
2022-07-29T01:42:47.829Z,6.50
2022-07-29T01:48:03.086Z,7.43
2022-07-29T01:53:09.466Z,7.00
2022-07-29T01:58:15.959Z,7.72
2022-07-29T02:03:24.282Z,7.05
2022-07-29T02:08:29.940Z,6.73
2022-07-29T02:13:35.961Z,7.50
2022-07-29T02:18:45.934Z,7.63
2022-07-29T02:23:54.102Z,7.32
2022-07-29T02:29:00.837Z,7.43
2022-07-29T02:34:11.328Z,6.80
2022-07-29T02:39:17.502Z,7.32
2022-07-29T02:44:23.533Z,8.32
2022-07-29T02:49:38.522Z,7.55
2022-07-29T02:54:48.887Z,6.75
2022-07-29T02:59:55.950Z,7.68
2022-07-29T03:05:04.314Z,7.90
2022-07-29T03:10:13.670Z,8.23
2022-07-29T03:15:19.123Z,7.75
2022-07-29T03:20:26.991Z,7.70
2022-07-29T03:25:32.064Z,8.20
2022-07-29T03:30:37.139Z,8.05
2022-07-29T03:35:46.650Z,8.70
2022-07-29T03:40:55.759Z,8.45
2022-07-29T03:46:01.817Z,9.45
2022-07-29T03:51:09.880Z,9.38
2022-07-29T03:56:16.406Z,9.50
2022-07-29T04:01:21.902Z,8.88
2022-07-29T04:06:29.666Z,9.52
2022-07-29T04:11:34.855Z,9.48
2022-07-29T04:16:59.943Z,9.15
2022-07-29T04:22:07.634Z,8.45
2022-07-29T04:27:12.633Z,9.60
2022-07-29T04:32:17.760Z,8.30
2022-07-29T04:37:25.381Z,8.77
2022-07-29T04:42:31.758Z,8.48
2022-07-29T04:47:36.848Z,8.90
2022-07-29T04:52:44.491Z,8.32
2022-07-29T04:57:49.497Z,8.38
2022-07-29T05:02:54.779Z,8.38
2022-07-29T05:08:02.499Z,7.57
2022-07-29T05:13:08.604Z,6.82
2022-07-29T05:18:13.690Z,6.50
2022-07-29T05:23:21.461Z,5.65
2022-07-29T05:28:26.481Z,5.90
2022-07-29T05:33:34.664Z,5.00
2022-07-29T05:38:44.457Z,4.35
2022-07-29T05:43:49.549Z,4.68
2022-07-29T05:48:54.627Z,4.07
2022-07-29T05:54:02.884Z,3.97
2022-07-29T05:59:18.245Z,4.67
2022-07-29T06:04:23.538Z,3.30
2022-07-29T06:09:31.211Z,3.58
2022-07-29T06:14:36.514Z,3.70
2022-07-29T06:19:41.981Z,2.97
2022-07-29T06:24:49.615Z,3.42
2022-07-29T06:29:55.224Z,4.18
2022-07-29T06:35:31.923Z,3.72
2022-07-29T06:40:40.660Z,4.40
2022-07-29T06:45:46.787Z,3.90
2022-07-29T06:50:51.857Z,4.20
2022-07-29T06:55:59.588Z,5.05
2022-07-29T07:01:07.245Z,3.90
2022-07-29T07:06:15.058Z,4.67
2022-07-29T07:11:23.008Z,4.63
2022-07-29T07:16:28.088Z,4.38
2022-07-29T07:21:33.215Z,6.82
2022-07-29T07:26:55.623Z,5.40
2022-07-29T07:32:01.725Z,5.10
2022-07-29T07:37:06.944Z,4.95
2022-07-29T07:42:14.609Z,7.30
2022-07-29T07:47:21.070Z,5.15
2022-07-29T07:52:27.359Z,6.32
2022-07-29T07:57:35.123Z,4.53
2022-07-29T08:02:40.237Z,5.15
2022-07-29T08:07:45.702Z,4.70
2022-07-29T08:12:53.334Z,6.07
2022-07-29T08:17:59.540Z,4.80
2022-07-29T08:23:05.485Z,4.75
2022-07-29T08:28:14.507Z,4.85
2022-07-29T08:33:19.528Z,5.63
2022-07-29T08:38:24.617Z,5.30
2022-07-29T08:43:33.291Z,5.00
2022-07-29T08:48:38.382Z,5.28
2022-07-29T08:53:44.902Z,5.68
2022-07-29T08:58:53.499Z,6.40
2022-07-29T09:04:00.256Z,8.05
2022-07-29T09:09:24.631Z,6.43
2022-07-29T09:14:32.259Z,7.82
2022-07-29T09:24:51.827Z,6.10
2022-07-29T09:30:08.390Z,5.82
2022-07-29T09:35:23.996Z,6.10
2022-07-29T09:40:32.072Z,7.78
2022-07-29T09:45:58.964Z,10.88
2022-07-29T09:51:06.191Z,8.05
2022-07-29T09:56:11.864Z,6.30
2022-07-29T10:01:19.799Z,6.70
2022-07-29T10:06:24.944Z,7.25
2022-07-29T10:16:58.706Z,11.55
2022-07-29T10:22:05.112Z,9.48
2022-07-29T10:27:27.715Z,7.80
2022-07-29T10:32:55.770Z,7.70
2022-07-29T10:38:35.598Z,6.93
2022-07-29T10:43:47.140Z,7.53
2022-07-29T10:49:19.390Z,7.40
2022-07-29T10:54:43.749Z,8.48
2022-07-29T10:59:50.314Z,7.80
2022-07-29T11:05:15.040Z,10.88
2022-07-29T11:16:28.071Z,8.15
2022-07-29T11:22:05.335Z,8.90
2022-07-29T11:27:18.052Z,8.00
2022-07-29T11:32:29.241Z,8.10
2022-07-29T11:37:42.556Z,8.70
2022-07-29T11:42:57.491Z,8.43
2022-07-29T11:48:32.183Z,8.40
2022-07-29T11:53:32.551Z,7.40
2022-07-29T11:58:38.553Z,8.38
2022-07-29T12:03:43.924Z,8.70
2022-07-29T12:08:52.699Z,8.60
2022-07-29T12:13:59.257Z,8.88
2022-07-29T12:19:05.384Z,9.80
2022-07-29T12:24:14.271Z,8.48
2022-07-29T12:29:33.623Z,8.93
2022-07-29T12:34:39.272Z,9.10
2022-07-29T12:39:47.303Z,8.82
2022-07-29T12:44:53.719Z,9.18
2022-07-29T12:50:16.330Z,10.55
2022-07-29T12:55:46.276Z,10.60
2022-07-29T13:06:51.005Z,10.25
2022-07-29T13:11:58.918Z,8.00
2022-07-29T13:17:06.240Z,8.95
2022-07-29T13:27:18.970Z,7.78
2022-07-29T13:32:28.807Z,7.72
2022-07-29T13:37:35.391Z,8.68
2022-07-29T13:42:44.156Z,7.57
2022-07-29T13:47:49.481Z,7.45
2022-07-29T13:52:54.661Z,8.00
2022-07-29T13:58:02.543Z,7.88
2022-07-29T14:03:09.760Z,7.75
2022-07-29T14:08:14.846Z,8.07
2022-07-29T14:13:25.189Z,7.05
2022-07-29T14:18:31.125Z,7.10
2022-07-29T14:23:36.240Z,7.63
2022-07-29T14:28:44.953Z,7.20
2022-07-29T14:33:50.135Z,7.25
2022-07-29T14:38:56.859Z,7.45
2022-07-29T14:44:04.517Z,7.23
2022-07-29T14:49:09.869Z,6.97
2022-07-29T14:54:16.084Z,8.10
2022-07-29T14:59:23.756Z,7.25
2022-07-29T15:04:28.818Z,7.93
2022-07-29T15:09:40.036Z,8.13
2022-07-29T15:14:57.258Z,8.60
2022-07-29T15:20:02.301Z,7.82
2022-07-29T15:25:08.086Z,8.73
2022-07-29T15:30:29.009Z,8.50
2022-07-29T15:35:40.491Z,7.63
2022-07-29T15:46:06.719Z,7.50
2022-07-29T15:51:11.816Z,8.23
2022-07-29T15:56:16.994Z,8.95
2022-07-29T16:01:25.187Z,8.15
2022-07-29T16:06:30.741Z,7.15
2022-07-29T16:11:35.947Z,8.07
2022-07-29T16:16:55.755Z,7.75
2022-07-29T16:22:01.188Z,9.40
2022-07-29T16:27:35.698Z,9.05
2022-07-29T16:33:27.237Z,7.95
2022-07-29T16:38:35.316Z,9.50
2022-07-29T16:43:41.113Z,11.68
2022-07-29T16:48:48.942Z,7.20
2022-07-29T16:53:53.986Z,8.50
2022-07-29T16:59:01.141Z,7.40
2022-07-29T17:04:09.399Z,7.63
2022-07-29T17:09:18.474Z,8.35
2022-07-29T17:14:25.179Z,7.63
2022-07-29T17:19:35.419Z,8.70
2022-07-29T17:24:41.099Z,8.80
2022-07-29T17:30:09.906Z,12.18
2022-07-29T17:41:17.951Z,7.70
2022-07-29T17:46:24.956Z,7.47
2022-07-29T17:51:32.687Z,7.88
2022-07-29T17:56:37.784Z,9.40
2022-07-29T18:01:43.017Z,7.53
2022-07-29T18:06:50.881Z,5.65
2022-07-29T18:11:56.111Z,5.60
2022-07-29T18:17:01.652Z,5.30
2022-07-29T18:22:11.575Z,5.60
2022-07-29T18:27:16.627Z,5.45
2022-07-29T18:32:28.779Z,5.63
2022-07-29T18:38:01.608Z,5.03
2022-07-29T18:43:02.596Z,4.45
2022-07-29T18:48:12.880Z,4.90
2022-07-29T18:53:21.440Z,4.93
2022-07-29T18:58:26.456Z,5.23
2022-07-29T19:03:31.478Z,5.88
2022-07-29T19:08:39.123Z,7.38
2022-07-29T19:13:47.111Z,8.82
2022-07-29T19:18:52.219Z,10.57
2022-07-29T19:24:07.466Z,10.27
2022-07-29T19:29:14.752Z,9.77
2022-07-29T19:34:19.803Z,10.82
2022-07-29T19:39:35.070Z,12.13
2022-07-29T19:44:40.634Z,8.80
2022-07-29T19:49:46.756Z,8.40
2022-07-29T19:54:54.462Z,8.73
2022-07-29T19:59:59.458Z,8.45
2022-07-29T20:05:04.510Z,7.80
2022-07-29T20:10:13.566Z,7.78
2022-07-29T20:15:20.190Z,8.18
2022-07-29T20:20:25.432Z,8.30
2022-07-29T20:25:33.416Z,7.40
2022-07-29T20:30:38.849Z,7.67
2022-07-29T20:35:44.471Z,7.70
2022-07-29T20:40:54.175Z,7.13
2022-07-29T20:45:59.527Z,7.13
2022-07-29T20:51:04.644Z,6.50
2022-07-29T20:56:12.612Z,7.57
2022-07-29T21:01:17.726Z,6.67
2022-07-29T21:06:22.814Z,6.70
2022-07-29T21:11:44.057Z,6.72
2022-07-29T21:16:50.446Z,6.63
2022-07-29T21:21:55.467Z,5.97
2022-07-29T21:27:21.621Z,6.53
2022-07-29T21:32:29.459Z,6.53
2022-07-29T21:37:35.267Z,6.70
2022-07-29T21:42:43.628Z,6.13
2022-07-29T21:47:50.667Z,6.25
2022-07-29T21:52:55.794Z,6.75
2022-07-29T21:58:04.029Z,6.43
2022-07-29T22:03:09.820Z,6.57
2022-07-29T22:08:14.857Z,6.80
2022-07-29T22:13:22.553Z,6.53
2022-07-29T22:18:27.588Z,6.47
2022-07-29T22:23:32.637Z,5.82
2022-07-29T22:28:40.577Z,7.88
2022-07-29T22:33:45.758Z,5.97
2022-07-29T22:38:52.054Z,7.20
2022-07-29T22:43:59.970Z,9.48
2022-07-29T22:49:05.698Z,10.10
2022-07-29T22:54:10.934Z,7.32
2022-07-29T22:59:18.612Z,10.25
2022-07-29T23:04:24.224Z,6.68
2022-07-29T23:09:30.125Z,7.70
2022-07-29T23:14:37.908Z,9.38
2022-07-29T23:19:42.911Z,6.43
2022-07-29T23:24:49.739Z,6.65
2022-07-29T23:29:57.390Z,6.28
2022-07-29T23:35:02.427Z,6.68
2022-07-29T23:40:13.644Z,6.32
2022-07-29T23:45:22.057Z,7.45
2022-07-29T23:50:37.532Z,7.03
2022-07-29T23:55:42.551Z,6.85
